createdAt,value
2023-08-30T00:01:03.147Z,98804.59
2023-08-30T00:03:29.785Z,98804.69
2023-08-30T00:05:56.554Z,98803.06
2023-08-30T00:08:23.182Z,98807.28
2023-08-30T00:10:50.207Z,98810.25
2023-08-30T00:13:16.706Z,98819.72
2023-08-30T00:15:43.777Z,98824.09
2023-08-30T00:18:10.929Z,98823.38
2023-08-30T00:20:37.806Z,98821.53
2023-08-30T00:23:05.904Z,98825.69
2023-08-30T00:25:32.429Z,98828.16
2023-08-30T00:27:58.931Z,98824.59
2023-08-30T00:30:25.447Z,98830.75
2023-08-30T00:32:51.938Z,98823.72
2023-08-30T00:35:18.404Z,98824.63
2023-08-30T00:37:44.896Z,98828.28
2023-08-30T00:40:11.738Z,98822.28
2023-08-30T00:42:38.208Z,98820.44
2023-08-30T00:45:05.539Z,98822.16
2023-08-30T00:47:32.174Z,98827.53
2023-08-30T00:49:58.967Z,98834.50
2023-08-30T00:52:25.502Z,98837.78
2023-08-30T00:54:52.073Z,98844.94
2023-08-30T00:57:18.994Z,98840.44
2023-08-30T00:59:45.746Z,98844.63
2023-08-30T01:02:12.573Z,98841.22
2023-08-30T01:04:39.082Z,98832.44
2023-08-30T01:07:05.544Z,98841.97
2023-08-30T01:09:32.071Z,98849.78
2023-08-30T01:12:05.432Z,98848.91
2023-08-30T01:14:57.341Z,98830.66
2023-08-30T01:17:24.782Z,98834.22
2023-08-30T01:20:09.267Z,98821.97
2023-08-30T01:23:03.657Z,98825.47
2023-08-30T01:25:39.255Z,98812.44
2023-08-30T01:28:08.173Z,98809.84
2023-08-30T01:30:38.410Z,98819.56
2023-08-30T01:33:05.983Z,98813.47
2023-08-30T01:35:36.678Z,98823.78
2023-08-30T01:38:04.648Z,98811.69
2023-08-30T01:40:36.143Z,98806.53
2023-08-30T01:43:04.042Z,98816.09
2023-08-30T01:45:31.783Z,98816.09
2023-08-30T01:47:58.449Z,98815.28
2023-08-30T01:50:26.262Z,98814.19
2023-08-30T01:52:53.686Z,98821.22
2023-08-30T01:55:22.718Z,98820.41
2023-08-30T01:57:50.025Z,98817.75
2023-08-30T02:00:16.616Z,98823.78
2023-08-30T02:02:43.172Z,98809.88
2023-08-30T02:05:11.007Z,98820.41
2023-08-30T02:07:52.926Z,98808.97
2023-08-30T02:10:42.550Z,98815.13
2023-08-30T02:13:12.029Z,98821.31
2023-08-30T02:15:41.840Z,98824.75
2023-08-30T02:18:10.147Z,98825.56
2023-08-30T02:20:37.170Z,98822.22
2023-08-30T02:23:11.641Z,98824.91
2023-08-30T02:25:41.385Z,98832.66
2023-08-30T02:28:08.075Z,98829.13
2023-08-30T02:30:34.745Z,98839.50
2023-08-30T02:33:01.269Z,98846.47
2023-08-30T02:35:27.742Z,98845.69
2023-08-30T02:37:54.219Z,98845.69
2023-08-30T02:40:20.718Z,98838.50
2023-08-30T02:42:47.233Z,98842.81
2023-08-30T02:45:13.787Z,98840.34
2023-08-30T02:47:40.381Z,98843.78
2023-08-30T02:50:07.095Z,98844.63
2023-08-30T02:52:33.455Z,98846.47
2023-08-30T02:54:59.951Z,98846.47
2023-08-30T02:57:27.154Z,98841.28
2023-08-30T02:59:53.709Z,98843.81
2023-08-30T03:02:20.242Z,98848.22
2023-08-30T03:04:46.734Z,98849.94
2023-08-30T03:07:13.219Z,98843.91
2023-08-30T03:09:40.264Z,98842.25
2023-08-30T03:12:07.525Z,98839.50
2023-08-30T03:14:34.054Z,98839.50
2023-08-30T03:17:00.555Z,98832.69
2023-08-30T03:19:27.062Z,98834.25
2023-08-30T03:21:53.533Z,98835.13
2023-08-30T03:24:20.097Z,98841.22
2023-08-30T03:26:46.587Z,98846.50
2023-08-30T03:29:13.060Z,98837.75
2023-08-30T03:31:39.610Z,98841.28
2023-08-30T03:34:06.169Z,98844.72
2023-08-30T03:36:32.667Z,98836.88
2023-08-30T03:38:59.150Z,98837.75
2023-08-30T03:41:25.617Z,98836.88
2023-08-30T03:43:52.195Z,98839.63
2023-08-30T03:46:19.014Z,98839.63
2023-08-30T03:48:45.560Z,98842.50
2023-08-30T03:51:12.112Z,98845.06
2023-08-30T03:53:38.588Z,98839.78
2023-08-30T03:56:05.290Z,98838.84
2023-08-30T03:58:32.513Z,98846.72
2023-08-30T04:00:59.052Z,98850.25
2023-08-30T04:03:25.694Z,98841.44
2023-08-30T04:05:57.260Z,98856.19
2023-08-30T04:08:24.102Z,98851.78
2023-08-30T04:10:52.973Z,98854.34
2023-08-30T04:13:19.498Z,98854.34
2023-08-30T04:15:45.994Z,98854.47
2023-08-30T04:18:12.822Z,98856.28
2023-08-30T04:20:47.492Z,98866.69
2023-08-30T04:23:14.423Z,98879.84
2023-08-30T04:25:41.858Z,98875.44
2023-08-30T04:28:08.679Z,98870.09
2023-08-30T04:30:38.269Z,98873.50
2023-08-30T04:33:06.401Z,98875.38
2023-08-30T04:35:33.530Z,98886.81
2023-08-30T04:38:00.849Z,98887.72
2023-08-30T04:40:30.399Z,98887.72
2023-08-30T04:42:57.452Z,98887.84
2023-08-30T04:45:24.017Z,98888.66
2023-08-30T04:47:50.564Z,98885.94
2023-08-30T04:50:18.185Z,98884.28
2023-08-30T04:52:44.796Z,98874.66
2023-08-30T04:55:11.464Z,98879.84
2023-08-30T04:57:38.198Z,98878.09
2023-08-30T05:00:06.177Z,98871.94
2023-08-30T05:02:33.120Z,98877.13
2023-08-30T05:04:59.724Z,98874.56
2023-08-30T05:07:26.254Z,98873.63
2023-08-30T05:09:53.037Z,98879.78
2023-08-30T05:12:19.473Z,98878.88
2023-08-30T05:14:46.055Z,98876.25
2023-08-30T05:17:12.622Z,98880.59
2023-08-30T05:19:39.132Z,98880.56
2023-08-30T05:22:05.670Z,98882.41
2023-08-30T05:24:32.165Z,98885.78
2023-08-30T05:26:58.688Z,98889.34
2023-08-30T05:29:25.195Z,98892.72
2023-08-30T05:31:51.728Z,98896.19
2023-08-30T05:34:18.225Z,98897.03
2023-08-30T05:36:44.716Z,98898.66
2023-08-30T05:39:11.207Z,98905.59
2023-08-30T05:41:37.780Z,98906.41
2023-08-30T05:44:04.750Z,98905.50
2023-08-30T05:46:31.267Z,98907.16
2023-08-30T05:48:57.828Z,98903.13
2023-08-30T05:51:24.326Z,98901.44
2023-08-30T05:53:50.848Z,98900.56
2023-08-30T05:56:18.253Z,98897.03
2023-08-30T05:58:44.882Z,98891.78
2023-08-30T06:01:11.447Z,98893.44
2023-08-30T06:03:37.930Z,98892.56
2023-08-30T06:06:04.710Z,98902.97
2023-08-30T06:08:31.213Z,98901.28
2023-08-30T06:10:57.839Z,98916.97
2023-08-30T06:13:25.009Z,98916.09
2023-08-30T06:15:54.734Z,98923.81
2023-08-30T06:18:21.321Z,98922.78
2023-08-30T06:20:49.037Z,98916.53
2023-08-30T06:23:16.638Z,98923.56
2023-08-30T06:25:43.258Z,98920.75
2023-08-30T06:28:10.147Z,98917.16
2023-08-30T06:30:37.083Z,98927.56
2023-08-30T06:33:03.611Z,98930.13
2023-08-30T06:35:30.260Z,98930.91
2023-08-30T06:37:56.895Z,98927.31
2023-08-30T06:40:23.338Z,98932.56
2023-08-30T06:42:49.924Z,98929.84
2023-08-30T06:45:17.567Z,98927.06
2023-08-30T06:47:44.221Z,98928.69
2023-08-30T06:50:11.073Z,98922.31
2023-08-30T06:52:37.913Z,98923.94
2023-08-30T06:55:04.987Z,98922.06
2023-08-30T06:57:31.505Z,98921.22
2023-08-30T06:59:59.371Z,98924.69
2023-08-30T07:02:27.019Z,98922.72
2023-08-30T07:04:53.545Z,98924.28
2023-08-30T07:07:20.164Z,98924.06
2023-08-30T07:09:46.769Z,98923.06
2023-08-30T07:12:13.222Z,98925.50
2023-08-30T07:14:39.958Z,98934.91
2023-08-30T07:17:06.535Z,98929.66
2023-08-30T07:19:33.088Z,98926.97
2023-08-30T07:21:59.627Z,98926.97
2023-08-30T07:24:26.118Z,98933.94
2023-08-30T07:26:52.644Z,98938.13
2023-08-30T07:29:19.149Z,98943.53
2023-08-30T07:31:45.736Z,98948.56
2023-08-30T07:34:12.774Z,98945.84
2023-08-30T07:36:47.155Z,98950.97
2023-08-30T07:39:15.657Z,98951.59
2023-08-30T07:41:42.608Z,98951.41
2023-08-30T07:44:09.237Z,98963.59
2023-08-30T07:46:35.724Z,98963.50
2023-08-30T07:49:02.288Z,98969.63
2023-08-30T07:51:28.785Z,98967.91
2023-08-30T07:53:55.335Z,98973.16
2023-08-30T07:56:21.882Z,98973.09
2023-08-30T07:58:48.383Z,98960.06
2023-08-30T08:01:14.956Z,98966.31
2023-08-30T08:03:55.784Z,98964.50
2023-08-30T08:06:27.320Z,98974.06
2023-08-30T08:08:53.896Z,98978.41
2023-08-30T08:11:20.512Z,98977.66
2023-08-30T08:13:47.092Z,98974.19
2023-08-30T08:16:13.761Z,98982.00
2023-08-30T08:18:40.202Z,98979.34
2023-08-30T08:21:06.704Z,98986.28
2023-08-30T08:23:33.206Z,98986.09
2023-08-30T08:26:00.988Z,98989.78
2023-08-30T08:28:27.814Z,98982.94
2023-08-30T08:30:54.236Z,98982.91
2023-08-30T08:33:24.174Z,98977.66
2023-08-30T08:35:51.531Z,98978.69
2023-08-30T08:38:18.581Z,98969.31
2023-08-30T08:40:45.315Z,98983.00
2023-08-30T08:43:13.473Z,98980.16
2023-08-30T08:45:40.786Z,98990.56
2023-08-30T08:48:08.841Z,98993.22
2023-08-30T08:50:35.840Z,98989.63
2023-08-30T08:53:03.828Z,98986.75
2023-08-30T08:55:33.880Z,98984.94
2023-08-30T08:58:00.983Z,98994.44
2023-08-30T09:00:28.284Z,99000.44
2023-08-30T09:02:55.519Z,98999.53
2023-08-30T09:05:23.491Z,98997.91
2023-08-30T09:07:54.396Z,99002.16
2023-08-30T09:10:22.780Z,99001.16
2023-08-30T09:12:49.572Z,99002.91
2023-08-30T09:15:16.596Z,99004.69
2023-08-30T09:17:44.304Z,99016.09
2023-08-30T09:20:12.929Z,99003.78
2023-08-30T09:22:40.886Z,99011.53
2023-08-30T09:25:11.485Z,99010.59
2023-08-30T09:27:43.142Z,99013.13
2023-08-30T09:30:12.042Z,99013.97
2023-08-30T09:32:43.162Z,99018.94
2023-08-30T09:35:10.843Z,99023.19
2023-08-30T09:37:37.494Z,99016.91
2023-08-30T09:40:04.273Z,99019.31
2023-08-30T09:42:30.861Z,99020.91
2023-08-30T09:44:57.957Z,99018.25
2023-08-30T09:47:28.439Z,99024.31
2023-08-30T09:49:56.701Z,99026.84
2023-08-30T09:52:26.572Z,99026.84
2023-08-30T09:54:53.678Z,99026.00
2023-08-30T09:57:22.632Z,99026.84
2023-08-30T09:59:49.746Z,99026.75
2023-08-30T10:02:16.800Z,99025.91
2023-08-30T10:04:45.289Z,99026.84
2023-08-30T10:07:12.626Z,99039.13
2023-08-30T10:09:46.172Z,99034.66
2023-08-30T10:12:23.087Z,99035.31
2023-08-30T10:14:49.633Z,99033.56
2023-08-30T10:17:19.535Z,99033.41
2023-08-30T10:19:47.628Z,99031.75
2023-08-30T10:22:18.198Z,99029.13
2023-08-30T10:25:11.579Z,99018.81
2023-08-30T10:27:44.464Z,99016.34
2023-08-30T10:30:13.675Z,99020.78
2023-08-30T10:32:42.036Z,99031.25
2023-08-30T10:35:13.434Z,99025.94
2023-08-30T10:37:40.530Z,99031.22
2023-08-30T10:40:08.250Z,99026.00
2023-08-30T10:42:35.615Z,99028.53
2023-08-30T10:47:40.321Z,99028.09
2023-08-30T10:50:12.053Z,99020.94
2023-08-30T10:52:39.258Z,99012.94
2023-08-30T10:55:07.003Z,99016.28
2023-08-30T10:57:34.660Z,99013.53
2023-08-30T11:00:12.215Z,99017.75
2023-08-30T11:02:39.356Z,99015.84
2023-08-30T11:05:10.028Z,99021.72
2023-08-30T11:07:37.100Z,99010.25
2023-08-30T11:10:10.261Z,99011.00
2023-08-30T11:12:37.057Z,99019.41
2023-08-30T11:15:04.072Z,99009.53
2023-08-30T11:17:30.942Z,99014.53
2023-08-30T11:20:08.854Z,99011.94
2023-08-30T11:22:40.432Z,99014.28
2023-08-30T11:25:09.372Z,99009.72
2023-08-30T11:27:35.919Z,99005.97
2023-08-30T11:30:04.402Z,99010.22
2023-08-30T11:32:36.936Z,99011.81
2023-08-30T11:35:04.291Z,99004.88
2023-08-30T11:37:31.533Z,99008.94
2023-08-30T11:39:59.075Z,99021.16
2023-08-30T11:42:26.501Z,99009.72
2023-08-30T11:44:53.382Z,99021.94
2023-08-30T11:47:27.288Z,99012.19
2023-08-30T11:49:55.829Z,99017.50
2023-08-30T11:52:24.192Z,99020.91
2023-08-30T11:54:51.486Z,99016.50
2023-08-30T11:57:18.008Z,99020.03
2023-08-30T11:59:44.752Z,99016.66
2023-08-30T12:02:14.766Z,99014.88
2023-08-30T12:04:46.696Z,99014.88
2023-08-30T12:07:24.335Z,99013.16
2023-08-30T12:09:51.344Z,99012.38
2023-08-30T12:12:18.004Z,99015.13
2023-08-30T12:14:44.459Z,99008.28
2023-08-30T12:17:13.558Z,99008.28
2023-08-30T12:19:43.696Z,99015.13
2023-08-30T12:22:10.184Z,99011.63
2023-08-30T12:24:43.730Z,99015.16
2023-08-30T12:27:10.345Z,99010.63
2023-08-30T12:29:37.274Z,99014.22
2023-08-30T12:32:04.077Z,99015.22
2023-08-30T12:34:30.650Z,99013.34
2023-08-30T12:36:57.061Z,99006.97
2023-08-30T12:39:23.545Z,99008.78
2023-08-30T12:41:50.121Z,99000.00
2023-08-30T12:44:16.951Z,99005.41
2023-08-30T12:46:43.457Z,98993.06
2023-08-30T12:49:10.066Z,98993.13
2023-08-30T12:51:36.506Z,98994.09
2023-08-30T12:54:03.048Z,98979.97
2023-08-30T12:56:29.501Z,98988.78
2023-08-30T12:58:55.941Z,98998.50
2023-08-30T13:01:22.486Z,98990.44
2023-08-30T13:03:48.859Z,98992.09
2023-08-30T13:06:15.299Z,98992.84
2023-08-30T13:08:41.765Z,98994.34
2023-08-30T13:11:08.283Z,98984.63
2023-08-30T13:13:34.866Z,98978.63
2023-08-30T13:16:01.316Z,98978.50
2023-08-30T13:18:27.859Z,98978.50
2023-08-30T13:20:57.344Z,98975.94
2023-08-30T13:23:23.951Z,98985.72
2023-08-30T13:25:50.542Z,98982.09
2023-08-30T13:28:16.967Z,98983.91
2023-08-30T13:30:46.880Z,98983.41
2023-08-30T13:33:14.250Z,98988.84
2023-08-30T13:35:41.108Z,98984.94
2023-08-30T13:38:07.608Z,98983.19
2023-08-30T13:40:34.107Z,98981.38
2023-08-30T13:43:00.591Z,98976.84
2023-08-30T13:45:27.097Z,98978.56
2023-08-30T13:47:56.088Z,98986.38
2023-08-30T13:50:22.694Z,98984.56
2023-08-30T13:52:49.260Z,98988.03
2023-08-30T13:55:15.760Z,98989.75
2023-08-30T13:57:42.273Z,98992.81
2023-08-30T14:00:11.110Z,98994.34
2023-08-30T14:02:37.727Z,98997.78
2023-08-30T14:05:04.494Z,98999.78
2023-08-30T14:07:31.428Z,99004.25
2023-08-30T14:09:58.934Z,99000.59
2023-08-30T14:12:25.484Z,99004.09
2023-08-30T14:14:53.046Z,99004.25
2023-08-30T14:17:21.134Z,99009.50
2023-08-30T14:19:47.826Z,99000.72
2023-08-30T14:22:14.495Z,99005.97
2023-08-30T14:24:57.472Z,99005.09
2023-08-30T14:27:27.941Z,99012.13
2023-08-30T14:29:54.514Z,99011.63
2023-08-30T14:32:20.901Z,99019.53
2023-08-30T14:34:47.397Z,99014.53
2023-08-30T14:37:13.871Z,99018.81
2023-08-30T14:39:40.399Z,99024.84
2023-08-30T14:42:06.994Z,99018.16
2023-08-30T14:44:33.489Z,99018.94
2023-08-30T14:47:00.022Z,99024.50
2023-08-30T14:49:26.559Z,99028.03
2023-08-30T14:51:53.077Z,99022.03
2023-08-30T14:54:19.890Z,99021.88
2023-08-30T14:56:46.486Z,99027.13
2023-08-30T14:59:13.389Z,99033.28
2023-08-30T15:01:40.480Z,99038.72
2023-08-30T15:04:07.192Z,99035.31
2023-08-30T15:06:33.715Z,99027.41
2023-08-30T15:09:00.206Z,99033.78
2023-08-30T15:11:26.704Z,99039.97
2023-08-30T15:13:53.214Z,99038.16
2023-08-30T15:16:19.709Z,99036.34
2023-08-30T15:18:46.216Z,99032.00
2023-08-30T15:21:14.576Z,99025.88
2023-08-30T15:23:41.166Z,99023.38
2023-08-30T15:26:07.768Z,99020.03
2023-08-30T15:28:34.723Z,99021.72
2023-08-30T15:31:01.245Z,99014.84
2023-08-30T15:33:27.949Z,99019.31
2023-08-30T15:35:58.653Z,99024.44
2023-08-30T15:38:25.200Z,99021.00
2023-08-30T15:40:54.761Z,99019.59
2023-08-30T15:43:21.314Z,99026.44
2023-08-30T15:45:48.498Z,99029.28
2023-08-30T15:48:15.107Z,99030.13
2023-08-30T15:50:42.679Z,99034.81
2023-08-30T15:53:10.608Z,99039.13
2023-08-30T15:55:37.152Z,99040.91
2023-08-30T15:58:03.739Z,99046.97
2023-08-30T16:00:30.283Z,99048.03
2023-08-30T16:02:59.133Z,99050.75
2023-08-30T16:05:25.844Z,99049.19
2023-08-30T16:07:52.518Z,99055.31
2023-08-30T16:10:19.204Z,99053.56
2023-08-30T16:12:45.647Z,99053.84
2023-08-30T16:15:12.258Z,99061.84
2023-08-30T16:17:38.747Z,99062.66
2023-08-30T16:20:06.417Z,99062.66
2023-08-30T16:22:34.767Z,99056.53
2023-08-30T16:25:01.413Z,99059.84
2023-08-30T16:27:27.875Z,99053.72
2023-08-30T16:29:54.384Z,99055.59
2023-08-30T16:32:21.045Z,99060.84
2023-08-30T16:34:50.528Z,99061.72
2023-08-30T16:37:17.452Z,99053.09
2023-08-30T16:39:43.876Z,99060.84
2023-08-30T16:42:10.389Z,99063.50
2023-08-30T16:44:37.930Z,99058.56
2023-08-30T16:47:04.652Z,99059.34
2023-08-30T16:49:31.306Z,99077.59
2023-08-30T16:51:57.716Z,99075.78
2023-08-30T16:54:24.353Z,99075.69
2023-08-30T16:56:51.211Z,99081.94
2023-08-30T16:59:17.770Z,99077.59
2023-08-30T17:01:44.218Z,99075.81
2023-08-30T17:04:11.516Z,99079.22
2023-08-30T17:06:37.995Z,99073.84
2023-08-30T17:09:05.454Z,99073.91
2023-08-30T17:11:33.990Z,99075.66
2023-08-30T17:14:01.049Z,99067.13
2023-08-30T17:16:27.630Z,99075.00
2023-08-30T17:18:54.185Z,99071.50
2023-08-30T17:21:20.812Z,99061.91
2023-08-30T17:23:47.358Z,99077.69
2023-08-30T17:26:13.816Z,99067.25
2023-08-30T17:28:40.421Z,99070.66
2023-08-30T17:31:07.554Z,99074.31
2023-08-30T17:33:34.766Z,99073.38
2023-08-30T17:36:04.908Z,99079.50
2023-08-30T17:38:34.884Z,99077.75
2023-08-30T17:41:01.436Z,99082.34
2023-08-30T17:43:27.998Z,99089.44
2023-08-30T17:45:54.944Z,99091.25
2023-08-30T17:48:21.446Z,99101.59
2023-08-30T17:50:47.977Z,99107.78
2023-08-30T17:53:14.642Z,99106.16
2023-08-30T17:55:42.405Z,99107.88
2023-08-30T17:58:09.551Z,99108.94
2023-08-30T18:00:36.277Z,99106.56
2023-08-30T18:03:04.895Z,99110.09
2023-08-30T18:05:32.018Z,99121.59
2023-08-30T18:07:58.574Z,99129.53
2023-08-30T18:10:25.631Z,99127.81
2023-08-30T18:12:52.361Z,99131.25
2023-08-30T18:15:18.797Z,99131.63
2023-08-30T18:17:45.524Z,99128.28
2023-08-30T18:20:15.459Z,99133.69
2023-08-30T18:22:43.174Z,99134.69
2023-08-30T18:25:10.436Z,99137.47
2023-08-30T18:27:37.598Z,99145.44
2023-08-30T18:30:05.765Z,99142.78
2023-08-30T18:32:33.423Z,99141.97
2023-08-30T18:35:00.048Z,99141.97
2023-08-30T18:37:26.559Z,99141.31
2023-08-30T18:39:53.593Z,99146.56
2023-08-30T18:42:20.059Z,99146.72
2023-08-30T18:44:47.852Z,99153.78
2023-08-30T18:47:18.720Z,99153.94
2023-08-30T18:49:45.279Z,99155.03
2023-08-30T18:52:11.923Z,99155.13
2023-08-30T18:54:44.704Z,99160.63
2023-08-30T18:57:12.648Z,99166.06
2023-08-30T18:59:40.244Z,99172.25
2023-08-30T19:02:07.520Z,99173.19
2023-08-30T19:04:34.559Z,99177.63
2023-08-30T19:07:01.251Z,99180.28
2023-08-30T19:09:28.752Z,99177.66
2023-08-30T19:11:55.260Z,99176.75
2023-08-30T19:14:21.903Z,99179.47
2023-08-30T19:16:48.437Z,99170.78
2023-08-30T19:19:14.995Z,99171.69
2023-08-30T19:21:41.982Z,99173.56
2023-08-30T19:24:10.053Z,99178.88
2023-08-30T19:26:36.609Z,99184.13
2023-08-30T19:29:03.188Z,99178.88
2023-08-30T19:31:33.685Z,99175.47
2023-08-30T19:34:00.256Z,99165.16
2023-08-30T19:36:28.496Z,99153.19
2023-08-30T19:38:56.558Z,99155.91
2023-08-30T19:41:26.660Z,99158.72
2023-08-30T19:43:55.607Z,99164.75
2023-08-30T19:46:24.452Z,99164.84
2023-08-30T19:48:51.278Z,99170.06
2023-08-30T19:51:18.077Z,99166.69
2023-08-30T19:53:44.695Z,99160.78
2023-08-30T19:56:11.272Z,99155.00
2023-08-30T19:58:37.826Z,99153.41
2023-08-30T20:01:06.692Z,99149.06
2023-08-30T20:03:34.669Z,99148.06
2023-08-30T20:06:02.297Z,99166.34
2023-08-30T20:08:28.821Z,99170.75
2023-08-30T20:11:01.887Z,99177.84
2023-08-30T20:13:28.345Z,99191.78
2023-08-30T20:16:02.132Z,99191.00
2023-08-30T20:18:29.521Z,99197.25
2023-08-30T20:20:56.952Z,99199.06
2023-08-30T20:23:23.985Z,99200.91
2023-08-30T20:25:51.239Z,99200.88
2023-08-30T20:28:19.005Z,99198.34
2023-08-30T20:30:49.903Z,99206.06
2023-08-30T20:33:16.933Z,99208.78
2023-08-30T20:35:44.279Z,99201.88
2023-08-30T20:38:13.964Z,99198.44
2023-08-30T20:40:44.749Z,99196.66
2023-08-30T20:43:11.659Z,99192.31
2023-08-30T20:45:38.703Z,99194.97
2023-08-30T20:48:05.836Z,99201.06
2023-08-30T20:50:33.818Z,99201.22
2023-08-30T20:53:00.954Z,99208.16
2023-08-30T20:55:39.307Z,99202.09
2023-08-30T20:58:06.937Z,99213.53
2023-08-30T21:00:34.124Z,99208.38
2023-08-30T21:03:04.467Z,99207.59
2023-08-30T21:05:32.012Z,99212.66
2023-08-30T21:07:58.601Z,99218.88
2023-08-30T21:10:25.621Z,99225.91
2023-08-30T21:13:04.760Z,99219.91
2023-08-30T21:15:32.604Z,99219.09
2023-08-30T21:17:59.126Z,99221.78
2023-08-30T21:20:25.721Z,99227.88
2023-08-30T21:22:52.221Z,99227.88
2023-08-30T21:25:18.835Z,99226.25
2023-08-30T21:27:45.368Z,99231.50
2023-08-30T21:30:12.311Z,99234.16
2023-08-30T21:32:39.461Z,99250.69
2023-08-30T21:35:08.041Z,99248.06
2023-08-30T21:37:34.645Z,99252.50
2023-08-30T21:40:01.338Z,99249.09
2023-08-30T21:42:27.911Z,99245.59
2023-08-30T21:44:54.420Z,99246.47
2023-08-30T21:47:20.887Z,99244.66
2023-08-30T21:49:47.370Z,99242.06
2023-08-30T21:52:13.890Z,99236.91
2023-08-30T21:54:41.942Z,99238.06
2023-08-30T21:57:08.387Z,99234.81
2023-08-30T21:59:35.106Z,99234.78
2023-08-30T22:02:02.168Z,99236.38
2023-08-30T22:04:28.914Z,99229.38
2023-08-30T22:06:55.397Z,99230.13
2023-08-30T22:09:22.164Z,99226.69
2023-08-30T22:11:49.192Z,99235.34
2023-08-30T22:14:15.738Z,99237.19
2023-08-30T22:16:43.016Z,99243.34
2023-08-30T22:19:09.676Z,99244.22
2023-08-30T22:21:36.159Z,99237.31
2023-08-30T22:24:03.365Z,99243.38
2023-08-30T22:26:30.202Z,99241.69
2023-08-30T22:28:56.671Z,99246.06
2023-08-30T22:31:24.721Z,99251.25
2023-08-30T22:33:52.256Z,99249.47
2023-08-30T22:36:18.936Z,99247.81
2023-08-30T22:38:45.778Z,99250.41
2023-08-30T22:41:12.215Z,99253.06
2023-08-30T22:43:39.130Z,99251.41
2023-08-30T22:46:05.684Z,99254.97
2023-08-30T22:48:32.228Z,99248.00
2023-08-30T22:51:04.586Z,99260.16
2023-08-30T22:53:34.308Z,99260.25
2023-08-30T22:56:02.232Z,99261.19
2023-08-30T22:58:28.766Z,99262.91
2023-08-30T23:00:55.478Z,99255.16
2023-08-30T23:03:21.978Z,99265.47
2023-08-30T23:05:48.744Z,99264.59
2023-08-30T23:08:15.149Z,99268.06
2023-08-30T23:10:43.979Z,99267.22
2023-08-30T23:13:10.765Z,99261.97
2023-08-30T23:15:37.421Z,99263.75
2023-08-30T23:18:04.499Z,99261.16
2023-08-30T23:20:33.408Z,99265.59
2023-08-30T23:23:00.036Z,99260.44
2023-08-30T23:25:26.616Z,99259.47
2023-08-30T23:27:53.215Z,99265.53
2023-08-30T23:30:19.805Z,99267.31
2023-08-30T23:32:46.346Z,99269.09
2023-08-30T23:35:12.959Z,99267.34
2023-08-30T23:37:39.476Z,99273.41
2023-08-30T23:40:10.884Z,99269.06
2023-08-30T23:42:37.890Z,99269.94
2023-08-30T23:45:06.260Z,99274.28
2023-08-30T23:47:33.583Z,99277.78
2023-08-30T23:50:00.104Z,99282.94
2023-08-30T23:52:27.136Z,99275.19
2023-08-30T23:54:53.691Z,99275.22
2023-08-30T23:57:20.194Z,99272.63
2023-08-30T23:59:46.815Z,99277.84
